sensor_id;sensor_type;location;lat;lon;timestamp;temperature;humidity
52555;DHT22;38455;52.710;6.502;2023-04-25T00:02:25;6.90;99.90
52555;DHT22;38455;52.710;6.502;2023-04-25T00:04:51;6.90;99.90
52555;DHT22;38455;52.710;6.502;2023-04-25T00:07:17;6.80;99.90
52555;DHT22;38455;52.710;6.502;2023-04-25T00:09:43;6.70;99.90
52555;DHT22;38455;52.710;6.502;2023-04-25T00:12:08;6.70;99.90
52555;DHT22;38455;52.710;6.502;2023-04-25T00:14:34;6.60;99.90
52555;DHT22;38455;52.710;6.502;2023-04-25T00:17:01;6.50;99.90
52555;DHT22;38455;52.710;6.502;2023-04-25T00:19:28;6.40;99.90
52555;DHT22;38455;52.710;6.502;2023-04-25T00:21:56;6.30;99.90
52555;DHT22;38455;52.710;6.502;2023-04-25T00:24:22;6.20;99.90
52555;DHT22;38455;52.710;6.502;2023-04-25T00:26:48;6.20;99.90
52555;DHT22;38455;52.710;6.502;2023-04-25T00:29:14;6.00;99.90
52555;DHT22;38455;52.710;6.502;2023-04-25T00:31:39;5.90;99.90
52555;DHT22;38455;52.710;6.502;2023-04-25T00:34:06;5.80;99.90
52555;DHT22;38455;52.710;6.502;2023-04-25T00:36:33;5.80;99.90
52555;DHT22;38455;52.710;6.502;2023-04-25T00:38:59;5.70;99.90
52555;DHT22;38455;52.710;6.502;2023-04-25T00:41:26;5.60;99.90
52555;DHT22;38455;52.710;6.502;2023-04-25T00:43:53;5.60;99.90
52555;DHT22;38455;52.710;6.502;2023-04-25T00:46:19;5.60;99.90
52555;DHT22;38455;52.710;6.502;2023-04-25T00:48:45;5.50;99.90
52555;DHT22;38455;52.710;6.502;2023-04-25T00:51:16;5.40;99.90
52555;DHT22;38455;52.710;6.502;2023-04-25T00:53:42;5.40;99.90
52555;DHT22;38455;52.710;6.502;2023-04-25T00:56:08;5.30;99.90
52555;DHT22;38455;52.710;6.502;2023-04-25T00:58:33;5.30;99.90
52555;DHT22;38455;52.710;6.502;2023-04-25T01:01:00;5.20;99.90
52555;DHT22;38455;52.710;6.502;2023-04-25T01:03:26;5.20;99.90
52555;DHT22;38455;52.710;6.502;2023-04-25T01:05:54;5.20;99.90
52555;DHT22;38455;52.710;6.502;2023-04-25T01:08:22;5.20;99.90
52555;DHT22;38455;52.710;6.502;2023-04-25T01:10:48;5.20;99.90
52555;DHT22;38455;52.710;6.502;2023-04-25T01:13:14;5.30;99.90
52555;DHT22;38455;52.710;6.502;2023-04-25T01:15:40;5.30;99.90
52555;DHT22;38455;52.710;6.502;2023-04-25T01:18:06;5.40;99.90
52555;DHT22;38455;52.710;6.502;2023-04-25T01:20:32;5.40;99.90
52555;DHT22;38455;52.710;6.502;2023-04-25T01:22:58;5.50;99.90
52555;DHT22;38455;52.710;6.502;2023-04-25T01:25:24;5.50;99.90
52555;DHT22;38455;52.710;6.502;2023-04-25T01:27:50;5.60;99.90
52555;DHT22;38455;52.710;6.502;2023-04-25T01:30:16;5.60;99.90
52555;DHT22;38455;52.710;6.502;2023-04-25T01:32:42;5.60;99.90
52555;DHT22;38455;52.710;6.502;2023-04-25T01:35:10;5.50;99.90
52555;DHT22;38455;52.710;6.502;2023-04-25T01:37:44;5.40;99.90
52555;DHT22;38455;52.710;6.502;2023-04-25T01:40:11;5.40;99.90
52555;DHT22;38455;52.710;6.502;2023-04-25T01:42:39;5.30;99.90
52555;DHT22;38455;52.710;6.502;2023-04-25T01:45:06;5.40;99.90
52555;DHT22;38455;52.710;6.502;2023-04-25T01:47:32;5.40;99.90
52555;DHT22;38455;52.710;6.502;2023-04-25T01:50:01;5.50;99.90
52555;DHT22;38455;52.710;6.502;2023-04-25T01:52:27;5.60;99.90
52555;DHT22;38455;52.710;6.502;2023-04-25T01:54:53;5.60;99.90
52555;DHT22;38455;52.710;6.502;2023-04-25T01:57:19;5.70;99.90
52555;DHT22;38455;52.710;6.502;2023-04-25T01:59:45;5.70;99.90
52555;DHT22;38455;52.710;6.502;2023-04-25T02:02:11;5.80;99.90
52555;DHT22;38455;52.710;6.502;2023-04-25T02:04:37;5.80;99.90
52555;DHT22;38455;52.710;6.502;2023-04-25T02:07:03;5.80;99.90
52555;DHT22;38455;52.710;6.502;2023-04-25T02:09:29;5.80;99.90
52555;DHT22;38455;52.710;6.502;2023-04-25T02:11:54;5.80;99.90
52555;DHT22;38455;52.710;6.502;2023-04-25T02:14:20;5.80;99.90
52555;DHT22;38455;52.710;6.502;2023-04-25T02:16:46;5.90;99.90
52555;DHT22;38455;52.710;6.502;2023-04-25T02:19:12;5.90;99.90
52555;DHT22;38455;52.710;6.502;2023-04-25T02:21:37;5.90;99.90
52555;DHT22;38455;52.710;6.502;2023-04-25T02:24:03;5.90;99.90
52555;DHT22;38455;52.710;6.502;2023-04-25T02:26:29;6.00;99.90
52555;DHT22;38455;52.710;6.502;2023-04-25T02:28:56;6.00;99.90
52555;DHT22;38455;52.710;6.502;2023-04-25T02:31:22;5.90;99.90
52555;DHT22;38455;52.710;6.502;2023-04-25T02:33:48;6.00;99.90
52555;DHT22;38455;52.710;6.502;2023-04-25T02:36:14;6.00;99.90
52555;DHT22;38455;52.710;6.502;2023-04-25T02:38:40;6.00;99.90
52555;DHT22;38455;52.710;6.502;2023-04-25T02:41:06;6.00;99.90
52555;DHT22;38455;52.710;6.502;2023-04-25T02:43:32;6.00;99.90
52555;DHT22;38455;52.710;6.502;2023-04-25T02:45:57;6.00;99.90
52555;DHT22;38455;52.710;6.502;2023-04-25T02:48:23;6.00;99.90
52555;DHT22;38455;52.710;6.502;2023-04-25T02:50:48;6.00;99.90
52555;DHT22;38455;52.710;6.502;2023-04-25T02:53:14;6.00;99.90
52555;DHT22;38455;52.710;6.502;2023-04-25T02:55:40;5.90;99.90
52555;DHT22;38455;52.710;6.502;2023-04-25T02:58:06;6.00;99.90
52555;DHT22;38455;52.710;6.502;2023-04-25T03:00:31;6.00;99.90
52555;DHT22;38455;52.710;6.502;2023-04-25T03:02:57;6.00;99.90
52555;DHT22;38455;52.710;6.502;2023-04-25T03:05:23;5.90;99.90
52555;DHT22;38455;52.710;6.502;2023-04-25T03:07:48;5.90;99.90
52555;DHT22;38455;52.710;6.502;2023-04-25T03:10:14;5.90;99.90
52555;DHT22;38455;52.710;6.502;2023-04-25T03:12:39;5.80;99.90
52555;DHT22;38455;52.710;6.502;2023-04-25T03:15:05;5.80;99.90
52555;DHT22;38455;52.710;6.502;2023-04-25T03:17:31;5.80;99.90
52555;DHT22;38455;52.710;6.502;2023-04-25T03:19:57;5.80;99.90
52555;DHT22;38455;52.710;6.502;2023-04-25T03:22:23;5.70;99.90
52555;DHT22;38455;52.710;6.502;2023-04-25T03:24:49;5.70;99.90
52555;DHT22;38455;52.710;6.502;2023-04-25T03:27:15;5.70;99.90
52555;DHT22;38455;52.710;6.502;2023-04-25T03:29:41;5.70;99.90
52555;DHT22;38455;52.710;6.502;2023-04-25T03:32:06;5.70;99.90
52555;DHT22;38455;52.710;6.502;2023-04-25T03:34:32;5.70;99.90
52555;DHT22;38455;52.710;6.502;2023-04-25T03:36:58;5.70;99.90
52555;DHT22;38455;52.710;6.502;2023-04-25T03:39:23;5.70;99.90
52555;DHT22;38455;52.710;6.502;2023-04-25T03:41:49;5.70;99.90
52555;DHT22;38455;52.710;6.502;2023-04-25T03:44:14;5.70;99.90
52555;DHT22;38455;52.710;6.502;2023-04-25T03:46:40;5.70;99.90
52555;DHT22;38455;52.710;6.502;2023-04-25T03:49:06;5.70;99.90
52555;DHT22;38455;52.710;6.502;2023-04-25T03:51:31;5.70;99.90
52555;DHT22;38455;52.710;6.502;2023-04-25T03:53:57;5.80;99.90
52555;DHT22;38455;52.710;6.502;2023-04-25T03:56:23;5.80;99.90
52555;DHT22;38455;52.710;6.502;2023-04-25T03:58:48;5.70;99.90
52555;DHT22;38455;52.710;6.502;2023-04-25T04:01:14;5.80;99.90
52555;DHT22;38455;52.710;6.502;2023-04-25T04:03:40;5.80;99.90
52555;DHT22;38455;52.710;6.502;2023-04-25T04:06:07;5.80;99.90
52555;DHT22;38455;52.710;6.502;2023-04-25T04:08:33;5.80;99.90
52555;DHT22;38455;52.710;6.502;2023-04-25T04:10:59;5.80;99.90
52555;DHT22;38455;52.710;6.502;2023-04-25T04:13:28;5.80;99.90
52555;DHT22;38455;52.710;6.502;2023-04-25T04:15:55;5.70;99.90
52555;DHT22;38455;52.710;6.502;2023-04-25T04:18:21;5.70;99.90
52555;DHT22;38455;52.710;6.502;2023-04-25T04:20:47;5.70;99.90
52555;DHT22;38455;52.710;6.502;2023-04-25T04:23:12;5.60;99.90
52555;DHT22;38455;52.710;6.502;2023-04-25T04:25:38;5.60;99.90
52555;DHT22;38455;52.710;6.502;2023-04-25T04:28:05;5.50;99.90
52555;DHT22;38455;52.710;6.502;2023-04-25T04:30:31;5.50;99.90
52555;DHT22;38455;52.710;6.502;2023-04-25T04:32:58;5.50;99.90
52555;DHT22;38455;52.710;6.502;2023-04-25T04:35:24;5.50;99.90
52555;DHT22;38455;52.710;6.502;2023-04-25T04:37:50;5.50;99.90
52555;DHT22;38455;52.710;6.502;2023-04-25T04:40:18;5.60;99.90
52555;DHT22;38455;52.710;6.502;2023-04-25T04:42:44;5.60;99.90
52555;DHT22;38455;52.710;6.502;2023-04-25T04:45:14;5.60;99.90
52555;DHT22;38455;52.710;6.502;2023-04-25T04:47:40;5.60;99.90
52555;DHT22;38455;52.710;6.502;2023-04-25T04:50:09;5.60;99.90
52555;DHT22;38455;52.710;6.502;2023-04-25T04:52:36;5.60;99.90
52555;DHT22;38455;52.710;6.502;2023-04-25T04:55:03;5.60;99.90
52555;DHT22;38455;52.710;6.502;2023-04-25T04:57:29;5.60;99.90
52555;DHT22;38455;52.710;6.502;2023-04-25T04:59:56;5.60;99.90
52555;DHT22;38455;52.710;6.502;2023-04-25T05:02:21;5.60;99.90
52555;DHT22;38455;52.710;6.502;2023-04-25T05:04:47;5.60;99.90
52555;DHT22;38455;52.710;6.502;2023-04-25T05:07:13;5.70;99.90
52555;DHT22;38455;52.710;6.502;2023-04-25T05:09:39;5.70;99.90
52555;DHT22;38455;52.710;6.502;2023-04-25T05:12:04;5.70;99.90
52555;DHT22;38455;52.710;6.502;2023-04-25T05:14:30;5.80;99.90
52555;DHT22;38455;52.710;6.502;2023-04-25T05:16:56;5.80;99.90
52555;DHT22;38455;52.710;6.502;2023-04-25T05:19:22;5.80;99.90
52555;DHT22;38455;52.710;6.502;2023-04-25T05:21:47;5.80;99.90
52555;DHT22;38455;52.710;6.502;2023-04-25T05:24:13;5.90;99.90
52555;DHT22;38455;52.710;6.502;2023-04-25T05:26:38;5.90;99.90
52555;DHT22;38455;52.710;6.502;2023-04-25T05:29:04;5.90;99.90
52555;DHT22;38455;52.710;6.502;2023-04-25T05:31:31;6.00;99.90
52555;DHT22;38455;52.710;6.502;2023-04-25T05:33:57;6.10;99.90
52555;DHT22;38455;52.710;6.502;2023-04-25T05:36:22;6.10;99.90
52555;DHT22;38455;52.710;6.502;2023-04-25T05:38:48;6.30;99.90
52555;DHT22;38455;52.710;6.502;2023-04-25T05:41:14;6.40;99.90
52555;DHT22;38455;52.710;6.502;2023-04-25T05:43:39;6.70;99.90
52555;DHT22;38455;52.710;6.502;2023-04-25T05:46:10;7.50;99.90
52555;DHT22;38455;52.710;6.502;2023-04-25T05:48:37;8.50;99.90
52555;DHT22;38455;52.710;6.502;2023-04-25T05:51:03;9.70;99.90
52555;DHT22;38455;52.710;6.502;2023-04-25T05:53:29;10.70;99.90
52555;DHT22;38455;52.710;6.502;2023-04-25T05:55:54;11.50;99.90
52555;DHT22;38455;52.710;6.502;2023-04-25T05:58:20;11.50;99.90
52555;DHT22;38455;52.710;6.502;2023-04-25T06:00:45;11.20;99.90
52555;DHT22;38455;52.710;6.502;2023-04-25T06:03:12;11.10;99.90
52555;DHT22;38455;52.710;6.502;2023-04-25T06:05:43;10.60;99.90
52555;DHT22;38455;52.710;6.502;2023-04-25T06:08:09;9.60;99.90
52555;DHT22;38455;52.710;6.502;2023-04-25T06:10:36;9.00;99.90
52555;DHT22;38455;52.710;6.502;2023-04-25T06:13:01;8.50;99.90
52555;DHT22;38455;52.710;6.502;2023-04-25T06:15:27;8.10;99.90
52555;DHT22;38455;52.710;6.502;2023-04-25T06:17:53;7.90;99.90
52555;DHT22;38455;52.710;6.502;2023-04-25T06:20:19;7.70;99.90
52555;DHT22;38455;52.710;6.502;2023-04-25T06:22:48;7.50;99.90
52555;DHT22;38455;52.710;6.502;2023-04-25T06:25:14;7.40;99.90
52555;DHT22;38455;52.710;6.502;2023-04-25T06:27:40;7.40;99.90
52555;DHT22;38455;52.710;6.502;2023-04-25T06:30:06;7.30;99.90
52555;DHT22;38455;52.710;6.502;2023-04-25T06:32:32;7.40;99.90
52555;DHT22;38455;52.710;6.502;2023-04-25T06:34:59;7.50;99.90
52555;DHT22;38455;52.710;6.502;2023-04-25T06:37:25;7.60;99.90
52555;DHT22;38455;52.710;6.502;2023-04-25T06:39:51;7.60;99.90
52555;DHT22;38455;52.710;6.502;2023-04-25T06:42:16;7.90;99.90
52555;DHT22;38455;52.710;6.502;2023-04-25T06:44:42;8.10;99.90
52555;DHT22;38455;52.710;6.502;2023-04-25T06:47:07;8.90;99.90
52555;DHT22;38455;52.710;6.502;2023-04-25T06:49:33;10.30;99.90
52555;DHT22;38455;52.710;6.502;2023-04-25T06:51:59;11.20;99.90
52555;DHT22;38455;52.710;6.502;2023-04-25T06:54:24;12.30;99.90
52555;DHT22;38455;52.710;6.502;2023-04-25T06:56:52;12.80;99.90
52555;DHT22;38455;52.710;6.502;2023-04-25T06:59:18;13.70;99.90
52555;DHT22;38455;52.710;6.502;2023-04-25T07:01:44;13.90;99.90
52555;DHT22;38455;52.710;6.502;2023-04-25T07:04:09;14.30;99.90
52555;DHT22;38455;52.710;6.502;2023-04-25T07:06:35;14.50;99.90
52555;DHT22;38455;52.710;6.502;2023-04-25T07:09:03;15.20;99.90
52555;DHT22;38455;52.710;6.502;2023-04-25T07:11:30;15.60;99.90
52555;DHT22;38455;52.710;6.502;2023-04-25T07:13:56;15.80;99.90
52555;DHT22;38455;52.710;6.502;2023-04-25T07:16:21;16.60;99.90
52555;DHT22;38455;52.710;6.502;2023-04-25T07:18:47;17.00;99.90
52555;DHT22;38455;52.710;6.502;2023-04-25T07:21:12;16.70;98.80
52555;DHT22;38455;52.710;6.502;2023-04-25T07:23:38;16.10;99.70
52555;DHT22;38455;52.710;6.502;2023-04-25T07:26:06;15.40;99.90
52555;DHT22;38455;52.710;6.502;2023-04-25T07:28:31;14.10;99.90
52555;DHT22;38455;52.710;6.502;2023-04-25T07:30:57;13.20;99.90
52555;DHT22;38455;52.710;6.502;2023-04-25T07:33:23;12.50;99.90
52555;DHT22;38455;52.710;6.502;2023-04-25T07:35:49;11.80;99.90
52555;DHT22;38455;52.710;6.502;2023-04-25T07:38:15;11.50;99.90
52555;DHT22;38455;52.710;6.502;2023-04-25T07:40:41;12.50;99.90
52555;DHT22;38455;52.710;6.502;2023-04-25T07:43:06;13.60;99.90
52555;DHT22;38455;52.710;6.502;2023-04-25T07:45:32;14.50;99.90
52555;DHT22;38455;52.710;6.502;2023-04-25T07:47:58;14.90;99.90
52555;DHT22;38455;52.710;6.502;2023-04-25T07:50:23;15.30;99.90
52555;DHT22;38455;52.710;6.502;2023-04-25T07:52:49;16.40;99.90
52555;DHT22;38455;52.710;6.502;2023-04-25T07:55:15;16.10;97.10
52555;DHT22;38455;52.710;6.502;2023-04-25T07:57:40;16.60;95.10
52555;DHT22;38455;52.710;6.502;2023-04-25T08:00:06;17.00;94.90
52555;DHT22;38455;52.710;6.502;2023-04-25T08:02:35;17.40;94.50
52555;DHT22;38455;52.710;6.502;2023-04-25T08:05:02;17.70;92.00
52555;DHT22;38455;52.710;6.502;2023-04-25T08:07:27;17.30;89.70
52555;DHT22;38455;52.710;6.502;2023-04-25T08:09:54;17.70;90.90
52555;DHT22;38455;52.710;6.502;2023-04-25T08:12:19;17.70;90.50
52555;DHT22;38455;52.710;6.502;2023-04-25T08:14:45;17.60;91.20
52555;DHT22;38455;52.710;6.502;2023-04-25T08:17:10;17.10;89.70
52555;DHT22;38455;52.710;6.502;2023-04-25T08:19:36;16.10;90.70
52555;DHT22;38455;52.710;6.502;2023-04-25T08:22:02;15.30;92.00
52555;DHT22;38455;52.710;6.502;2023-04-25T08:24:28;14.30;93.70
52555;DHT22;38455;52.710;6.502;2023-04-25T08:26:54;13.50;95.50
52555;DHT22;38455;52.710;6.502;2023-04-25T08:29:19;12.60;99.90
52555;DHT22;38455;52.710;6.502;2023-04-25T08:31:45;11.90;99.90
52555;DHT22;38455;52.710;6.502;2023-04-25T08:34:11;11.10;99.90
52555;DHT22;38455;52.710;6.502;2023-04-25T08:36:36;9.90;99.90
52555;DHT22;38455;52.710;6.502;2023-04-25T08:39:02;9.20;99.90
52555;DHT22;38455;52.710;6.502;2023-04-25T08:41:28;8.70;99.90
52555;DHT22;38455;52.710;6.502;2023-04-25T08:43:55;8.30;99.90
52555;DHT22;38455;52.710;6.502;2023-04-25T08:46:21;8.30;99.90
52555;DHT22;38455;52.710;6.502;2023-04-25T08:48:49;8.10;99.90
52555;DHT22;38455;52.710;6.502;2023-04-25T08:51:23;8.50;99.90
52555;DHT22;38455;52.710;6.502;2023-04-25T08:53:53;8.90;99.90
52555;DHT22;38455;52.710;6.502;2023-04-25T08:56:19;9.30;99.90
52555;DHT22;38455;52.710;6.502;2023-04-25T08:58:49;9.70;99.90
52555;DHT22;38455;52.710;6.502;2023-04-25T09:01:15;10.10;99.90
52555;DHT22;38455;52.710;6.502;2023-04-25T09:03:42;11.20;99.90
52555;DHT22;38455;52.710;6.502;2023-04-25T09:06:10;11.70;99.90
52555;DHT22;38455;52.710;6.502;2023-04-25T09:08:37;12.00;99.90
52555;DHT22;38455;52.710;6.502;2023-04-25T09:11:03;12.90;99.90
52555;DHT22;38455;52.710;6.502;2023-04-25T09:13:29;14.20;99.90
52555;DHT22;38455;52.710;6.502;2023-04-25T09:15:56;15.30;99.90
52555;DHT22;38455;52.710;6.502;2023-04-25T09:18:23;15.10;99.90
52555;DHT22;38455;52.710;6.502;2023-04-25T09:20:54;16.40;99.90
52555;DHT22;38455;52.710;6.502;2023-04-25T09:23:21;16.60;99.90
52555;DHT22;38455;52.710;6.502;2023-04-25T09:25:48;17.40;99.90
52555;DHT22;38455;52.710;6.502;2023-04-25T09:28:14;17.60;99.90
52555;DHT22;38455;52.710;6.502;2023-04-25T09:30:40;17.50;99.90
52555;DHT22;38455;52.710;6.502;2023-04-25T09:33:07;17.90;99.90
52555;DHT22;38455;52.710;6.502;2023-04-25T09:35:44;17.80;98.50
52555;DHT22;38455;52.710;6.502;2023-04-25T09:38:14;18.30;98.40
52555;DHT22;38455;52.710;6.502;2023-04-25T09:40:45;18.50;94.70
52555;DHT22;38455;52.710;6.502;2023-04-25T09:43:21;18.80;97.70
52555;DHT22;38455;52.710;6.502;2023-04-25T09:45:47;19.40;91.80
52555;DHT22;38455;52.710;6.502;2023-04-25T09:48:21;19.60;93.00
52555;DHT22;38455;52.710;6.502;2023-04-25T09:51:10;19.10;85.40
52555;DHT22;38455;52.710;6.502;2023-04-25T09:53:38;19.50;90.30
52555;DHT22;38455;52.710;6.502;2023-04-25T09:56:05;20.20;91.70
52555;DHT22;38455;52.710;6.502;2023-04-25T09:58:32;20.30;88.30
52555;DHT22;38455;52.710;6.502;2023-04-25T10:01:00;19.60;88.50
52555;DHT22;38455;52.710;6.502;2023-04-25T10:03:29;18.80;85.70
52555;DHT22;38455;52.710;6.502;2023-04-25T10:05:57;18.60;90.80
52555;DHT22;38455;52.710;6.502;2023-04-25T10:08:26;18.90;90.20
52555;DHT22;38455;52.710;6.502;2023-04-25T10:10:54;19.70;87.30
52555;DHT22;38455;52.710;6.502;2023-04-25T10:13:20;19.10;82.10
52555;DHT22;38455;52.710;6.502;2023-04-25T10:15:47;18.50;80.30
52555;DHT22;38455;52.710;6.502;2023-04-25T10:18:12;17.80;80.60
52555;DHT22;38455;52.710;6.502;2023-04-25T10:20:39;17.00;81.40
52555;DHT22;38455;52.710;6.502;2023-04-25T10:23:13;16.60;81.10
52555;DHT22;38455;52.710;6.502;2023-04-25T10:25:40;15.30;85.80
52555;DHT22;38455;52.710;6.502;2023-04-25T10:28:06;14.60;91.20
52555;DHT22;38455;52.710;6.502;2023-04-25T10:30:31;13.80;94.00
52555;DHT22;38455;52.710;6.502;2023-04-25T10:32:58;13.20;96.60
52555;DHT22;38455;52.710;6.502;2023-04-25T10:35:28;13.00;97.50
52555;DHT22;38455;52.710;6.502;2023-04-25T10:38:10;12.80;97.90
52555;DHT22;38455;52.710;6.502;2023-04-25T10:40:36;13.10;97.80
52555;DHT22;38455;52.710;6.502;2023-04-25T10:45:52;14.20;96.30
52555;DHT22;38455;52.710;6.502;2023-04-25T10:48:45;15.30;96.90
52555;DHT22;38455;52.710;6.502;2023-04-25T10:51:17;15.10;92.50
52555;DHT22;38455;52.710;6.502;2023-04-25T10:53:44;14.30;91.80
52555;DHT22;38455;52.710;6.502;2023-04-25T10:58:42;13.30;93.20
52555;DHT22;38455;52.710;6.502;2023-04-25T11:01:08;13.10;94.80
52555;DHT22;38455;52.710;6.502;2023-04-25T11:03:39;13.60;96.20
52555;DHT22;38455;52.710;6.502;2023-04-25T11:06:22;14.40;97.50
52555;DHT22;38455;52.710;6.502;2023-04-25T11:08:50;14.60;94.00
52555;DHT22;38455;52.710;6.502;2023-04-25T11:11:19;14.50;93.30
52555;DHT22;38455;52.710;6.502;2023-04-25T11:13:49;15.00;93.90
52555;DHT22;38455;52.710;6.502;2023-04-25T11:16:16;15.00;92.80
52555;DHT22;38455;52.710;6.502;2023-04-25T11:18:42;15.20;93.60
52555;DHT22;38455;52.710;6.502;2023-04-25T11:21:08;15.20;92.30
52555;DHT22;38455;52.710;6.502;2023-04-25T11:23:34;15.40;91.70
52555;DHT22;38455;52.710;6.502;2023-04-25T11:26:00;15.90;91.10
52555;DHT22;38455;52.710;6.502;2023-04-25T11:28:26;16.20;88.80
52555;DHT22;38455;52.710;6.502;2023-04-25T11:30:52;15.60;87.10
52555;DHT22;38455;52.710;6.502;2023-04-25T11:33:22;16.10;83.00
52555;DHT22;38455;52.710;6.502;2023-04-25T11:35:48;16.90;85.40
52555;DHT22;38455;52.710;6.502;2023-04-25T11:38:14;17.30;83.70
52555;DHT22;38455;52.710;6.502;2023-04-25T11:40:40;17.60;81.50
52555;DHT22;38455;52.710;6.502;2023-04-25T11:43:06;17.40;79.80
52555;DHT22;38455;52.710;6.502;2023-04-25T11:45:32;17.40;80.50
52555;DHT22;38455;52.710;6.502;2023-04-25T11:47:58;17.10;78.30
52555;DHT22;38455;52.710;6.502;2023-04-25T11:50:23;17.30;80.40
52555;DHT22;38455;52.710;6.502;2023-04-25T11:52:49;16.90;80.10
52555;DHT22;38455;52.710;6.502;2023-04-25T11:55:19;16.60;82.40
52555;DHT22;38455;52.710;6.502;2023-04-25T11:57:47;15.70;83.70
52555;DHT22;38455;52.710;6.502;2023-04-25T12:00:19;15.50;81.50
52555;DHT22;38455;52.710;6.502;2023-04-25T12:02:56;15.20;82.50
52555;DHT22;38455;52.710;6.502;2023-04-25T12:05:28;14.60;83.20
52555;DHT22;38455;52.710;6.502;2023-04-25T12:07:54;13.80;82.10
52555;DHT22;38455;52.710;6.502;2023-04-25T12:10:20;14.10;84.90
52555;DHT22;38455;52.710;6.502;2023-04-25T12:12:47;13.50;81.60
52555;DHT22;38455;52.710;6.502;2023-04-25T12:15:24;14.00;81.60
52555;DHT22;38455;52.710;6.502;2023-04-25T12:17:52;15.40;81.80
52555;DHT22;38455;52.710;6.502;2023-04-25T12:20:25;16.50;84.50
52555;DHT22;38455;52.710;6.502;2023-04-25T12:22:51;16.60;82.30
52555;DHT22;38455;52.710;6.502;2023-04-25T12:25:42;15.90;82.60
52555;DHT22;38455;52.710;6.502;2023-04-25T12:28:16;15.00;84.90
52555;DHT22;38455;52.710;6.502;2023-04-25T12:30:59;14.80;86.10
52555;DHT22;38455;52.710;6.502;2023-04-25T12:33:27;15.30;87.80
52555;DHT22;38455;52.710;6.502;2023-04-25T12:35:53;15.10;85.80
52555;DHT22;38455;52.710;6.502;2023-04-25T12:38:25;14.50;86.70
52555;DHT22;38455;52.710;6.502;2023-04-25T12:40:51;14.80;85.50
52555;DHT22;38455;52.710;6.502;2023-04-25T12:43:17;14.70;85.50
52555;DHT22;38455;52.710;6.502;2023-04-25T12:45:50;14.70;84.40
52555;DHT22;38455;52.710;6.502;2023-04-25T12:48:16;15.30;88.70
52555;DHT22;38455;52.710;6.502;2023-04-25T12:50:42;14.60;84.50
52555;DHT22;38455;52.710;6.502;2023-04-25T12:53:09;13.90;85.40
52555;DHT22;38455;52.710;6.502;2023-04-25T12:55:35;13.60;87.10
52555;DHT22;38455;52.710;6.502;2023-04-25T12:58:01;14.10;89.10
52555;DHT22;38455;52.710;6.502;2023-04-25T13:00:26;14.70;90.20
52555;DHT22;38455;52.710;6.502;2023-04-25T13:02:52;15.40;90.70
52555;DHT22;38455;52.710;6.502;2023-04-25T13:05:18;16.10;89.60
52555;DHT22;38455;52.710;6.502;2023-04-25T13:07:43;16.00;84.60
52555;DHT22;38455;52.710;6.502;2023-04-25T13:10:09;16.00;80.90
52555;DHT22;38455;52.710;6.502;2023-04-25T13:12:35;16.10;81.90
52555;DHT22;38455;52.710;6.502;2023-04-25T13:15:01;16.40;81.30
52555;DHT22;38455;52.710;6.502;2023-04-25T13:17:27;16.90;78.90
52555;DHT22;38455;52.710;6.502;2023-04-25T13:19:52;17.50;79.90
52555;DHT22;38455;52.710;6.502;2023-04-25T13:22:18;16.40;81.10
52555;DHT22;38455;52.710;6.502;2023-04-25T13:24:45;15.60;84.30
52555;DHT22;38455;52.710;6.502;2023-04-25T13:27:11;14.80;87.20
52555;DHT22;38455;52.710;6.502;2023-04-25T13:29:37;14.30;89.70
52555;DHT22;38455;52.710;6.502;2023-04-25T13:32:04;13.90;91.10
52555;DHT22;38455;52.710;6.502;2023-04-25T13:34:30;13.40;93.40
52555;DHT22;38455;52.710;6.502;2023-04-25T13:36:56;13.30;94.20
52555;DHT22;38455;52.710;6.502;2023-04-25T13:39:22;12.90;96.50
52555;DHT22;38455;52.710;6.502;2023-04-25T13:41:47;12.50;96.40
52555;DHT22;38455;52.710;6.502;2023-04-25T13:44:13;12.40;97.80
52555;DHT22;38455;52.710;6.502;2023-04-25T13:46:39;12.70;99.50
52555;DHT22;38455;52.710;6.502;2023-04-25T13:49:05;13.10;99.90
52555;DHT22;38455;52.710;6.502;2023-04-25T13:51:31;13.50;99.90
52555;DHT22;38455;52.710;6.502;2023-04-25T13:53:57;13.40;97.20
52555;DHT22;38455;52.710;6.502;2023-04-25T13:56:23;13.80;97.20
52555;DHT22;38455;52.710;6.502;2023-04-25T13:58:51;14.10;99.00
52555;DHT22;38455;52.710;6.502;2023-04-25T14:01:18;14.20;97.90
52555;DHT22;38455;52.710;6.502;2023-04-25T14:03:44;14.10;96.50
52555;DHT22;38455;52.710;6.502;2023-04-25T14:06:10;14.10;96.80
52555;DHT22;38455;52.710;6.502;2023-04-25T14:08:38;13.90;98.10
52555;DHT22;38455;52.710;6.502;2023-04-25T14:11:03;13.60;96.60
52555;DHT22;38455;52.710;6.502;2023-04-25T14:13:29;13.00;96.10
52555;DHT22;38455;52.710;6.502;2023-04-25T14:15:55;12.90;96.40
52555;DHT22;38455;52.710;6.502;2023-04-25T14:18:21;12.80;97.20
52555;DHT22;38455;52.710;6.502;2023-04-25T14:20:48;13.00;99.90
52555;DHT22;38455;52.710;6.502;2023-04-25T14:23:13;13.40;99.90
52555;DHT22;38455;52.710;6.502;2023-04-25T14:25:39;13.40;97.90
52555;DHT22;38455;52.710;6.502;2023-04-25T14:28:05;13.40;96.20
52555;DHT22;38455;52.710;6.502;2023-04-25T14:30:31;13.00;95.90
52555;DHT22;38455;52.710;6.502;2023-04-25T14:32:57;12.70;94.70
52555;DHT22;38455;52.710;6.502;2023-04-25T14:35:22;11.90;94.60
52555;DHT22;38455;52.710;6.502;2023-04-25T14:37:48;11.50;97.50
52555;DHT22;38455;52.710;6.502;2023-04-25T14:40:14;11.20;99.90
52555;DHT22;38455;52.710;6.502;2023-04-25T14:42:41;11.30;99.90
52555;DHT22;38455;52.710;6.502;2023-04-25T14:45:07;11.50;99.90
52555;DHT22;38455;52.710;6.502;2023-04-25T14:47:34;11.40;99.90
52555;DHT22;38455;52.710;6.502;2023-04-25T14:50:00;11.30;99.90
52555;DHT22;38455;52.710;6.502;2023-04-25T14:52:27;11.30;99.90
52555;DHT22;38455;52.710;6.502;2023-04-25T14:54:52;11.10;99.20
52555;DHT22;38455;52.710;6.502;2023-04-25T14:57:18;11.30;99.00
52555;DHT22;38455;52.710;6.502;2023-04-25T14:59:44;11.50;99.70
52555;DHT22;38455;52.710;6.502;2023-04-25T15:02:11;11.60;98.60
52555;DHT22;38455;52.710;6.502;2023-04-25T15:04:36;11.70;99.60
52555;DHT22;38455;52.710;6.502;2023-04-25T15:07:02;11.50;98.20
52555;DHT22;38455;52.710;6.502;2023-04-25T15:09:29;11.60;98.20
52555;DHT22;38455;52.710;6.502;2023-04-25T15:11:55;11.50;98.90
52555;DHT22;38455;52.710;6.502;2023-04-25T15:14:21;11.80;98.00
52555;DHT22;38455;52.710;6.502;2023-04-25T15:16:47;12.00;98.70
52555;DHT22;38455;52.710;6.502;2023-04-25T15:19:12;11.90;98.60
52555;DHT22;38455;52.710;6.502;2023-04-25T15:21:38;11.80;97.80
52555;DHT22;38455;52.710;6.502;2023-04-25T15:24:04;11.70;98.50
52555;DHT22;38455;52.710;6.502;2023-04-25T15:26:30;11.80;99.40
52555;DHT22;38455;52.710;6.502;2023-04-25T15:28:55;11.80;99.90
52555;DHT22;38455;52.710;6.502;2023-04-25T15:31:21;11.40;99.90
52555;DHT22;38455;52.710;6.502;2023-04-25T15:33:47;11.60;99.90
52555;DHT22;38455;52.710;6.502;2023-04-25T15:36:13;11.60;99.90
52555;DHT22;38455;52.710;6.502;2023-04-25T15:38:41;11.50;99.90
52555;DHT22;38455;52.710;6.502;2023-04-25T15:41:07;11.40;99.90